Time;durP1;ratioP1;P1;durP2;ratioP2;P2;SDS_P1;SDS_P2;PMS_P1;PMS_P2;Temp;Humidity;BMP_temperature;BMP_pressure;BME280_temperature;BME280_humidity;BME280_pressure;Samples;Min_cycle;Max_cycle;Signal;HPM_P1;HPM_P2
2022/10/12 00:01:02;;;;;;;0.88;0.65;;;7.40;99.90;;;;;;5072323;28;20044;-67
2022/10/12 00:03:27;;;;;;;1.83;0.70;;;7.30;99.90;;;;;;5073467;28;20040;-67
2022/10/12 00:06:06;;;;;;;3.55;0.70;;;7.70;99.90;;;;;;5072527;28;20055;-67
2022/10/12 00:08:33;;;;;;;0.95;0.60;;;7.20;99.90;;;;;;5073686;28;20078;-67
2022/10/12 00:10:58;;;;;;;3.42;0.70;;;7.30;99.90;;;;;;5073361;28;20041;-67
2022/10/12 00:13:24;;;;;;;2.05;0.70;;;7.30;99.90;;;;;;5072026;28;20047;-67
2022/10/12 00:15:50;;;;;;;2.38;1.05;;;7.30;99.90;;;;;;5073576;28;20048;-68
2022/10/12 00:18:16;;;;;;;1.02;0.77;;;7.30;99.90;;;;;;5072327;28;20036;-67
2022/10/12 00:20:42;;;;;;;1.70;0.85;;;7.30;99.90;;;;;;5073446;28;20048;-67
2022/10/12 00:23:07;;;;;;;6.97;0.82;;;7.40;99.90;;;;;;5071955;28;20040;-68
2022/10/12 00:25:40;;;;;;;2.97;0.80;;;7.60;99.90;;;;;;5072820;28;20395;-67
2022/10/12 00:28:07;;;;;;;2.30;0.70;;;7.40;99.90;;;;;;5071279;28;20040;-67
2022/10/12 00:30:34;;;;;;;1.85;0.70;;;7.40;99.90;;;;;;5073236;28;20068;-67
2022/10/12 00:32:59;;;;;;;1.52;0.85;;;7.40;99.90;;;;;;5073108;28;20041;-67
2022/10/12 00:35:28;;;;;;;1.23;0.70;;;7.40;99.90;;;;;;5071580;28;20449;-67
2022/10/12 00:37:54;;;;;;;3.33;0.85;;;7.40;99.90;;;;;;5071873;28;20052;-67
2022/10/12 00:40:21;;;;;;;0.63;0.60;;;7.50;99.90;;;;;;5073075;28;20040;-67
2022/10/12 00:42:48;;;;;;;1.15;0.60;;;7.40;99.90;;;;;;5071303;28;20059;-67
2022/10/12 00:45:15;;;;;;;1.27;0.60;;;7.40;99.90;;;;;;5071486;28;20135;-67
2022/10/12 00:47:48;;;;;;;1.90;0.80;;;7.40;99.90;;;;;;5072930;28;20052;-67
2022/10/12 00:50:24;;;;;;;1.75;0.47;;;7.40;99.90;;;;;;5071161;28;20055;-67
2022/10/12 00:53:04;;;;;;;1.75;0.85;;;7.40;99.90;;;;;;5072745;28;20048;-67
2022/10/12 00:55:36;;;;;;;2.38;0.90;;;7.40;99.90;;;;;;5072729;28;20494;-67
2022/10/12 00:58:04;;;;;;;1.10;0.63;;;7.40;99.90;;;;;;5072756;28;20082;-67
2022/10/12 01:00:30;;;;;;;0.63;0.50;;;7.40;99.90;;;;;;5072268;28;20040;-67
2022/10/12 01:02:56;;;;;;;3.67;0.95;;;7.30;99.90;;;;;;5072689;28;20032;-67
2022/10/12 01:05:23;;;;;;;4.20;0.50;;;7.30;99.90;;;;;;5072622;28;20055;-67
2022/10/12 01:07:48;;;;;;;3.78;0.70;;;7.30;99.90;;;;;;5071119;28;20080;-67
2022/10/12 01:10:15;;;;;;;2.70;0.60;;;7.30;99.90;;;;;;5072365;28;20121;-67
2022/10/12 01:12:43;;;;;;;1.42;0.80;;;7.30;99.90;;;;;;5054261;28;20071;-67
2022/10/12 01:15:09;;;;;;;2.58;0.85;;;7.20;99.90;;;;;;5072609;28;20399;-67
2022/10/12 01:17:35;;;;;;;1.17;0.70;;;7.20;99.90;;;;;;5072204;28;20395;-67
2022/10/12 01:20:16;;;;;;;2.38;0.90;;;7.50;99.90;;;;;;5071203;28;20044;-67
2022/10/12 01:23:03;;;;;;;12.57;0.90;;;7.20;99.90;;;;;;5072481;28;20572;-67
2022/10/12 01:25:38;;;;;;;2.38;0.57;;;7.30;99.90;;;;;;5072737;28;20122;-67
2022/10/12 01:28:26;;;;;;;1.05;0.60;;;7.30;99.90;;;;;;5072309;28;20076;-67
2022/10/12 01:31:03;;;;;;;1.40;0.50;;;7.20;99.90;;;;;;5064397;28;20052;-68
2022/10/12 01:33:37;;;;;;;6.53;0.80;;;7.20;99.90;;;;;;5070689;28;20051;-68
2022/10/12 01:36:26;;;;;;;1.17;0.73;;;7.20;99.90;;;;;;5071950;28;20130;-67
2022/10/12 01:39:28;;;;;;;5.35;0.50;;;7.30;99.90;;;;;;5070900;28;20036;-67
2022/10/12 01:41:57;;;;;;;3.63;0.50;;;7.30;99.90;;;;;;5071600;28;20057;-67
2022/10/12 01:44:25;;;;;;;4.95;0.60;;;7.20;99.90;;;;;;5072210;28;20090;-67
2022/10/12 01:46:53;;;;;;;1.17;0.57;;;7.20;99.90;;;;;;5072205;28;20468;-68
2022/10/12 01:49:27;;;;;;;2.05;0.82;;;7.20;99.90;;;;;;5071905;28;20028;-67
2022/10/12 01:52:18;;;;;;;2.05;0.98;;;7.20;99.90;;;;;;5070789;28;20400;-67
2022/10/12 01:54:55;;;;;;;1.88;0.50;;;7.20;99.90;;;;;;5071787;28;20036;-68
2022/10/12 01:57:42;;;;;;;1.85;0.75;;;7.20;99.90;;;;;;5072014;28;20403;-67
2022/10/12 02:00:13;;;;;;;1.35;0.90;;;7.20;99.90;;;;;;5070478;28;20102;-67
2022/10/12 02:03:00;;;;;;;1.42;0.65;;;7.20;99.90;;;;;;5071984;28;20040;-67
2022/10/12 02:05:37;;;;;;;3.10;1.00;;;7.20;99.90;;;;;;5071938;28;20493;-68
2022/10/12 02:08:35;;;;;;;8.90;0.98;;;7.20;99.90;;;;;;5071998;28;20507;-67
2022/10/12 02:11:08;;;;;;;1.63;0.90;;;7.30;99.90;;;;;;5069922;28;20057;-68
2022/10/12 02:13:49;;;;;;;3.38;0.63;;;7.20;99.90;;;;;;5071676;28;20048;-67
2022/10/12 02:16:19;;;;;;;2.47;0.77;;;7.20;99.90;;;;;;5071904;28;20087;-67
2022/10/12 02:18:49;;;;;;;1.40;0.55;;;7.30;99.90;;;;;;5071473;28;20086;-67
2022/10/12 02:21:20;;;;;;;1.65;0.95;;;7.30;99.90;;;;;;5070293;28;20048;-67
2022/10/12 02:23:48;;;;;;;1.55;0.88;;;7.30;99.90;;;;;;5070331;28;20079;-67
2022/10/12 02:26:15;;;;;;;2.17;0.77;;;7.70;99.90;;;;;;5071519;28;20040;-67
2022/10/12 02:28:43;;;;;;;5.45;0.82;;;7.20;99.90;;;;;;5070103;28;20036;-67
2022/10/12 02:31:55;;;;;;;2.30;0.93;;;7.20;99.90;;;;;;5071718;28;20492;-67
2022/10/12 02:34:27;;;;;;;3.70;1.08;;;7.20;99.90;;;;;;5066083;28;20048;-67
2022/10/12 02:37:11;;;;;;;1.80;0.70;;;7.50;99.90;;;;;;5071756;28;20057;-67
2022/10/12 02:39:55;;;;;;;6.90;0.90;;;7.20;99.90;;;;;;5071672;28;20707;-67
2022/10/12 02:42:29;;;;;;;4.07;0.60;;;7.10;99.90;;;;;;5071176;28;20049;-67
2022/10/12 02:44:58;;;;;;;1.88;0.70;;;7.20;99.90;;;;;;5070032;28;20079;-68
2022/10/12 02:47:26;;;;;;;4.38;1.08;;;7.20;99.90;;;;;;5071852;28;20047;-67
2022/10/12 02:49:54;;;;;;;2.97;0.80;;;7.20;99.90;;;;;;5072699;28;20040;-67
2022/10/12 02:52:22;;;;;;;6.25;0.70;;;7.20;99.90;;;;;;5075166;28;20075;-67
2022/10/12 02:54:47;;;;;;;1.90;0.70;;;7.20;99.90;;;;;;5073483;28;20051;-67
2022/10/12 02:57:13;;;;;;;2.00;0.90;;;7.20;99.90;;;;;;5074802;28;20032;-67
2022/10/12 02:59:39;;;;;;;5.45;1.10;;;7.30;99.90;;;;;;5075055;28;20093;-67
2022/10/12 03:02:04;;;;;;;2.33;0.70;;;7.40;99.90;;;;;;5073808;28;20059;-67
2022/10/12 03:04:30;;;;;;;3.60;2.47;;;7.30;99.90;;;;;;5074935;28;20046;-67
2022/10/12 03:06:56;;;;;;;0.95;0.68;;;7.30;99.90;;;;;;5074936;28;20123;-67
2022/10/12 03:09:21;;;;;;;0.95;0.60;;;7.20;99.90;;;;;;5074826;28;20394;-67
2022/10/12 03:11:47;;;;;;;2.05;0.75;;;7.30;99.90;;;;;;5074422;28;20491;-67
2022/10/12 03:14:14;;;;;;;1.60;0.90;;;7.20;99.90;;;;;;5073172;28;20044;-67
2022/10/12 03:16:40;;;;;;;1.75;0.65;;;7.20;99.90;;;;;;5074702;28;20076;-67
2022/10/12 03:19:06;;;;;;;1.05;0.85;;;7.20;99.90;;;;;;5074724;28;20391;-67
2022/10/12 03:21:32;;;;;;;5.78;0.95;;;7.20;99.90;;;;;;5073359;28;20387;-67
2022/10/12 03:23:57;;;;;;;3.35;0.70;;;7.20;99.90;;;;;;5074708;28;20048;-67
2022/10/12 03:26:23;;;;;;;6.30;0.60;;;7.20;99.90;;;;;;5073031;28;20502;-67
2022/10/12 03:28:49;;;;;;;8.35;1.20;;;7.20;99.90;;;;;;5074284;28;20117;-67
2022/10/12 03:31:16;;;;;;;3.80;1.20;;;7.10;99.90;;;;;;5074173;28;20052;-67
2022/10/12 03:33:41;;;;;;;2.33;1.20;;;7.10;99.90;;;;;;5072937;28;20395;-67
2022/10/12 03:36:08;;;;;;;1.70;1.00;;;7.10;99.90;;;;;;5072753;28;20044;-67
2022/10/12 03:38:34;;;;;;;3.72;1.27;;;7.10;99.90;;;;;;5073982;28;20048;-67
2022/10/12 03:41:00;;;;;;;5.72;1.30;;;7.60;99.90;;;;;;5074281;28;20036;-67
2022/10/12 03:43:26;;;;;;;2.55;1.35;;;7.10;99.90;;;;;;5073865;28;20560;-67
2022/10/12 03:45:52;;;;;;;4.80;1.58;;;7.10;99.90;;;;;;5074197;28;20051;-67
2022/10/12 03:48:18;;;;;;;3.00;1.20;;;7.10;99.90;;;;;;5072883;28;20056;-67
2022/10/12 03:50:51;;;;;;;3.80;1.95;;;7.30;99.90;;;;;;5074123;28;20047;-67
2022/10/12 03:53:18;;;;;;;3.20;1.85;;;7.10;99.90;;;;;;5073981;28;20044;-67
2022/10/12 03:55:44;;;;;;;4.50;1.73;;;7.10;99.90;;;;;;5074256;28;20434;-67
2022/10/12 03:58:10;;;;;;;2.72;1.50;;;7.10;99.90;;;;;;5073919;28;20133;-67
2022/10/12 04:00:36;;;;;;;6.03;1.95;;;7.10;99.90;;;;;;5073867;28;20491;-67
2022/10/12 04:03:02;;;;;;;5.50;1.88;;;7.10;99.90;;;;;;5073923;28;20115;-68
2022/10/12 04:05:29;;;;;;;3.40;1.73;;;7.10;99.90;;;;;;5072171;28;20122;-67
2022/10/12 04:07:54;;;;;;;2.70;1.55;;;7.30;99.90;;;;;;5073739;28;20044;-67
2022/10/12 04:10:20;;;;;;;3.45;1.70;;;7.90;99.90;;;;;;5072150;28;20418;-67
2022/10/12 04:12:46;;;;;;;5.28;2.53;;;7.10;99.90;;;;;;5073638;28;20392;-67
2022/10/12 04:15:13;;;;;;;3.67;1.80;;;7.10;99.90;;;;;;5073572;28;20028;-68
2022/10/12 04:17:39;;;;;;;6.80;2.30;;;7.30;99.90;;;;;;5072211;28;20524;-67
2022/10/12 04:20:06;;;;;;;7.88;2.47;;;7.00;99.90;;;;;;5073186;28;20127;-66
2022/10/12 04:22:32;;;;;;;8.15;2.00;;;7.10;99.90;;;;;;5073091;28;20093;-67
2022/10/12 04:24:57;;;;;;;11.05;2.15;;;7.00;99.90;;;;;;5073390;28;20399;-67
2022/10/12 04:27:23;;;;;;;3.88;2.28;;;7.10;99.90;;;;;;5073396;28;20045;-67
2022/10/12 04:29:49;;;;;;;4.65;2.35;;;7.00;99.90;;;;;;5073336;28;20048;-67
2022/10/12 04:32:14;;;;;;;4.53;2.03;;;7.20;99.90;;;;;;5071527;28;20403;-67
2022/10/12 04:34:40;;;;;;;3.67;1.80;;;7.00;99.90;;;;;;5073216;28;20041;-67
2022/10/12 04:37:06;;;;;;;8.55;1.90;;;7.00;99.90;;;;;;5072948;28;20464;-67
2022/10/12 04:39:31;;;;;;;6.38;2.42;;;7.10;99.90;;;;;;5072796;28;20458;-67
2022/10/12 04:41:57;;;;;;;9.27;2.53;;;7.00;99.90;;;;;;5072870;28;20044;-67
2022/10/12 04:44:23;;;;;;;3.40;2.38;;;7.10;99.90;;;;;;5072756;28;20075;-67
2022/10/12 04:46:49;;;;;;;4.88;2.10;;;7.00;99.90;;;;;;5073208;28;20071;-67
2022/10/12 04:49:15;;;;;;;4.93;2.42;;;7.00;99.90;;;;;;5072987;28;20454;-67
2022/10/12 04:51:41;;;;;;;4.95;2.28;;;7.00;99.90;;;;;;5072930;28;20040;-66
2022/10/12 04:54:08;;;;;;;6.20;2.60;;;7.00;99.90;;;;;;5072799;28;20041;-67
2022/10/12 04:56:34;;;;;;;7.72;2.22;;;7.70;99.90;;;;;;5071222;28;20123;-67
2022/10/12 04:58:59;;;;;;;5.82;2.55;;;7.00;99.90;;;;;;5072485;28;20123;-67
2022/10/12 05:01:25;;;;;;;3.08;1.83;;;7.00;99.90;;;;;;5072643;28;20040;-67
2022/10/12 05:03:51;;;;;;;7.22;2.33;;;6.90;99.90;;;;;;5072396;28;20044;-67
2022/10/12 05:06:17;;;;;;;3.90;2.30;;;6.90;99.90;;;;;;5072354;28;20127;-67
2022/10/12 05:08:42;;;;;;;10.02;2.70;;;6.90;99.90;;;;;;5072635;28;20151;-67
2022/10/12 05:11:08;;;;;;;6.80;2.17;;;6.90;99.90;;;;;;5070993;28;20044;-68
2022/10/12 05:13:34;;;;;;;4.03;1.85;;;6.90;99.90;;;;;;5070429;28;20106;-67
2022/10/12 05:15:59;;;;;;;4.80;2.00;;;6.90;99.90;;;;;;5070913;28;20062;-67
2022/10/12 05:18:25;;;;;;;5.43;1.92;;;7.00;99.90;;;;;;5072146;28;20036;-67
2022/10/12 05:20:51;;;;;;;6.70;2.17;;;6.80;99.90;;;;;;5072453;28;20039;-66
2022/10/12 05:23:16;;;;;;;4.93;2.15;;;6.80;99.90;;;;;;5072085;28;20044;-65
2022/10/12 05:25:42;;;;;;;8.43;2.10;;;6.80;99.90;;;;;;5072416;28;20090;-66
2022/10/12 05:28:07;;;;;;;4.65;2.60;;;6.80;99.90;;;;;;5072391;28;20047;-66
2022/10/12 05:30:33;;;;;;;3.90;1.88;;;6.80;99.90;;;;;;5072261;28;20508;-67
2022/10/12 05:32:59;;;;;;;8.10;2.47;;;6.80;99.90;;;;;;5070638;28;20148;-67
2022/10/12 05:35:25;;;;;;;6.35;1.95;;;6.70;99.90;;;;;;5071000;28;20480;-65
2022/10/12 05:37:50;;;;;;;7.57;2.17;;;6.70;99.90;;;;;;5072259;28;20078;-66
2022/10/12 05:40:16;;;;;;;4.00;2.03;;;6.70;99.90;;;;;;5072122;28;20135;-66
2022/10/12 05:42:43;;;;;;;3.70;1.88;;;6.70;99.90;;;;;;5070378;28;20424;-67
2022/10/12 05:45:09;;;;;;;5.47;1.95;;;6.70;99.90;;;;;;5072162;28;20080;-66
2022/10/12 05:47:35;;;;;;;4.10;2.20;;;6.60;99.90;;;;;;5070572;28;20056;-66
2022/10/12 05:50:00;;;;;;;3.55;2.17;;;6.60;99.90;;;;;;5072169;28;20040;-66
2022/10/12 05:52:26;;;;;;;4.88;2.40;;;6.60;99.90;;;;;;5071949;28;20126;-66
2022/10/12 05:54:52;;;;;;;5.30;2.53;;;6.60;99.90;;;;;;5070490;28;20541;-67
2022/10/12 05:57:18;;;;;;;4.63;2.30;;;6.60;99.90;;;;;;5072065;28;20515;-66
2022/10/12 05:59:44;;;;;;;3.25;2.00;;;6.60;99.90;;;;;;5072057;28;20094;-66
2022/10/12 06:02:14;;;;;;;4.82;2.15;;;6.60;99.90;;;;;;5071911;28;20484;-66
2022/10/12 06:04:40;;;;;;;3.17;2.03;;;6.60;99.90;;;;;;5071940;28;20052;-66
2022/10/12 06:07:06;;;;;;;8.70;2.47;;;6.60;99.90;;;;;;5070276;28;20041;-66
2022/10/12 06:09:31;;;;;;;9.43;2.85;;;6.70;99.90;;;;;;5070244;28;20095;-66
2022/10/12 06:11:57;;;;;;;3.72;2.17;;;6.60;99.90;;;;;;5071806;28;20044;-66
2022/10/12 06:14:23;;;;;;;6.72;3.35;;;6.50;99.90;;;;;;5071764;28;20044;-66
2022/10/12 06:16:49;;;;;;;9.80;3.10;;;6.50;99.90;;;;;;5071732;28;20048;-67
2022/10/12 06:19:14;;;;;;;12.30;3.25;;;6.50;99.90;;;;;;5071456;28;20032;-68
2022/10/12 06:21:40;;;;;;;6.95;3.20;;;6.50;99.90;;;;;;5071558;28;20373;-67
2022/10/12 06:24:06;;;;;;;5.78;2.75;;;6.50;99.90;;;;;;5071392;28;20399;-67
2022/10/12 06:26:32;;;;;;;6.60;2.92;;;6.60;99.90;;;;;;5073966;28;20041;-67
2022/10/12 06:28:59;;;;;;;9.27;3.55;;;6.60;99.90;;;;;;5074061;28;20052;-67
2022/10/12 06:31:26;;;;;;;8.80;2.83;;;6.60;99.90;;;;;;5073774;28;20115;-67
2022/10/12 06:33:52;;;;;;;6.35;3.08;;;6.60;99.90;;;;;;5075147;28;20075;-67
2022/10/12 06:36:18;;;;;;;4.35;2.88;;;6.60;99.90;;;;;;5073504;28;20037;-67
2022/10/12 06:38:44;;;;;;;5.50;3.15;;;6.60;99.90;;;;;;5075180;28;20106;-67
2022/10/12 06:41:10;;;;;;;7.03;3.45;;;6.60;99.90;;;;;;5075148;28;20040;-67
2022/10/12 06:43:36;;;;;;;6.90;2.85;;;6.60;99.90;;;;;;5074587;28;20052;-67
2022/10/12 06:46:02;;;;;;;4.78;2.67;;;6.60;99.90;;;;;;5074695;28;20040;-68
2022/10/12 06:48:28;;;;;;;11.32;3.55;;;6.70;99.90;;;;;;5074879;28;20146;-67
2022/10/12 06:50:54;;;;;;;4.88;3.15;;;6.70;99.90;;;;;;5073324;28;20127;-68
2022/10/12 06:53:21;;;;;;;6.35;3.35;;;6.70;99.90;;;;;;5074709;28;20071;-67
2022/10/12 06:55:46;;;;;;;5.95;2.70;;;6.80;99.90;;;;;;5073504;28;20039;-67
2022/10/12 06:58:12;;;;;;;5.40;3.03;;;6.80;99.90;;;;;;5074838;28;20453;-67
2022/10/12 07:00:38;;;;;;;4.93;2.65;;;6.90;99.90;;;;;;5075061;28;20399;-67
2022/10/12 07:03:04;;;;;;;9.88;7.05;;;6.90;99.90;;;;;;5073285;28;20560;-67
2022/10/12 07:05:29;;;;;;;6.22;3.05;;;7.00;99.90;;;;;;5073225;28;20530;-68
2022/10/12 07:07:55;;;;;;;5.45;2.72;;;7.30;99.90;;;;;;5074522;28;20102;-67
2022/10/12 07:10:21;;;;;;;5.13;3.28;;;7.10;99.90;;;;;;5074851;28;20036;-68
2022/10/12 07:12:47;;;;;;;4.38;2.83;;;7.10;99.90;;;;;;5073170;28;20126;-68
2022/10/12 07:15:12;;;;;;;5.35;2.53;;;7.30;99.90;;;;;;5074725;28;20076;-67
2022/10/12 07:17:38;;;;;;;6.78;2.53;;;7.30;99.90;;;;;;5073099;28;20504;-68
2022/10/12 07:20:04;;;;;;;4.68;2.35;;;7.50;99.90;;;;;;5073215;28;20070;-68
2022/10/12 07:22:30;;;;;;;7.30;4.00;;;7.50;99.90;;;;;;5073289;28;20053;-68
2022/10/12 07:24:56;;;;;;;3.90;2.40;;;7.70;99.90;;;;;;5072898;28;20047;-68
2022/10/12 07:27:22;;;;;;;6.88;3.30;;;7.70;99.90;;;;;;5074319;28;20048;-68
2022/10/12 07:29:48;;;;;;;5.35;2.40;;;7.80;99.90;;;;;;5073081;28;20498;-68
2022/10/12 07:32:14;;;;;;;13.85;2.72;;;7.90;99.90;;;;;;5074252;28;20453;-68
2022/10/12 07:34:40;;;;;;;3.65;2.33;;;8.00;99.90;;;;;;5072628;28;20396;-68
2022/10/12 07:37:06;;;;;;;5.68;2.50;;;8.10;99.90;;;;;;5072196;28;20094;-68
2022/10/12 07:39:31;;;;;;;4.85;2.53;;;8.30;99.90;;;;;;5072995;28;20490;-68
2022/10/12 07:41:57;;;;;;;6.88;2.40;;;8.30;99.90;;;;;;5073908;28;20053;-68
2022/10/12 07:44:23;;;;;;;4.82;2.25;;;8.40;99.90;;;;;;5072539;28;20040;-68
2022/10/12 07:46:49;;;;;;;3.00;1.67;;;8.40;99.90;;;;;;5073682;28;20041;-68
2022/10/12 07:49:15;;;;;;;4.95;2.28;;;8.80;99.90;;;;;;5073910;28;20037;-68
2022/10/12 07:51:41;;;;;;;8.57;1.92;;;8.80;99.90;;;;;;5073872;28;20036;-69
2022/10/12 07:54:07;;;;;;;4.93;2.30;;;9.00;99.90;;;;;;5073716;28;20052;-68
2022/10/12 07:56:33;;;;;;;5.07;2.45;;;8.60;99.90;;;;;;5073486;28;20483;-68
2022/10/12 07:58:59;;;;;;;5.65;1.65;;;8.60;99.90;;;;;;5072551;28;20490;-68
2022/10/12 08:01:31;;;;;;;11.38;2.38;;;8.70;99.90;;;;;;5071947;28;20039;-68
2022/10/12 08:03:57;;;;;;;5.28;1.80;;;8.70;99.90;;;;;;5073642;28;20079;-68
2022/10/12 08:06:25;;;;;;;3.40;1.90;;;8.80;99.90;;;;;;5073485;28;20512;-68
2022/10/12 08:08:51;;;;;;;5.85;2.05;;;8.90;99.90;;;;;;5073235;28;20028;-68
2022/10/12 08:11:18;;;;;;;3.50;1.77;;;9.00;99.90;;;;;;5073163;28;20034;-68
2022/10/12 08:13:44;;;;;;;3.72;1.83;;;9.10;99.90;;;;;;5073143;28;20112;-69
2022/10/12 08:16:16;;;;;;;4.90;1.90;;;9.20;99.90;;;;;;5073332;28;20074;-68
2022/10/12 08:18:43;;;;;;;3.90;1.60;;;9.40;99.90;;;;;;5071782;28;20044;-68
2022/10/12 08:21:10;;;;;;;10.35;2.00;;;9.50;99.90;;;;;;5073228;28;20143;-69
2022/10/12 08:23:36;;;;;;;3.05;1.60;;;9.60;99.90;;;;;;5072952;28;20044;-68
2022/10/12 08:26:04;;;;;;;5.75;1.33;;;9.70;99.90;;;;;;5073087;28;20158;-68
2022/10/12 08:28:30;;;;;;;3.38;1.65;;;9.80;99.90;;;;;;5055074;28;20496;-68
2022/10/12 08:30:55;;;;;;;4.43;1.50;;;9.90;99.90;;;;;;5055045;28;20056;-68
2022/10/12 08:33:21;;;;;;;5.20;1.85;;;10.10;99.90;;;;;;5072926;28;20036;-68
2022/10/12 08:35:48;;;;;;;3.13;1.50;;;10.20;99.90;;;;;;5072978;28;20051;-68
2022/10/12 08:38:14;;;;;;;3.38;1.50;;;10.30;99.90;;;;;;5072750;28;20040;-69
2022/10/12 08:40:56;;;;;;;5.68;1.88;;;10.40;99.90;;;;;;5072972;28;20044;-68
2022/10/12 08:43:40;;;;;;;4.60;1.45;;;10.40;99.90;;;;;;5072588;28;20068;-69
2022/10/12 08:46:06;;;;;;;4.97;1.80;;;10.40;99.90;;;;;;5072648;28;20036;-68
2022/10/12 08:49:07;;;;;;;5.97;1.40;;;10.50;99.90;;;;;;5070634;28;20109;-68
2022/10/12 08:51:47;;;;;;;6.00;1.38;;;10.60;99.90;;;;;;5049292;28;20596;-68
2022/10/12 08:54:17;;;;;;;5.57;1.60;;;10.60;99.90;;;;;;5072708;28;20483;-68
2022/10/12 08:56:44;;;;;;;4.13;1.92;;;10.60;99.90;;;;;;5073029;28;20036;-68
2022/10/12 08:59:15;;;;;;;5.68;1.65;;;10.70;99.90;;;;;;5072344;28;20040;-69
2022/10/12 09:02:20;;;;;;;2.88;1.77;;;10.70;99.90;;;;;;5072213;28;20048;-68
2022/10/12 09:05:08;;;;;;;7.50;1.67;;;10.70;99.90;;;;;;5072504;28;20068;-69
2022/10/12 09:08:08;;;;;;;3.67;1.70;;;10.80;99.90;;;;;;5072442;28;20052;-68
2022/10/12 09:11:16;;;;;;;3.20;1.50;;;10.80;99.90;;;;;;5072482;28;20392;-68
2022/10/12 09:14:01;;;;;;;4.93;1.25;;;10.80;99.90;;;;;;5087656;28;20044;-68
2022/10/12 09:16:29;;;;;;;14.57;1.63;;;10.80;99.90;;;;;;5072541;28;20036;-68
2022/10/12 09:18:59;;;;;;;6.90;2.28;;;10.90;99.90;;;;;;5071132;28;20502;-68
2022/10/12 09:21:27;;;;;;;7.05;1.80;;;11.00;99.90;;;;;;5072351;28;20364;-68
2022/10/12 09:23:55;;;;;;;4.32;1.70;;;10.90;99.90;;;;;;5072377;28;20048;-70
2022/10/12 09:26:29;;;;;;;4.70;1.88;;;10.90;99.90;;;;;;5072336;28;20037;-68
2022/10/12 09:28:56;;;;;;;7.63;1.77;;;10.90;99.90;;;;;;5072344;28;20497;-68
2022/10/12 09:31:49;;;;;;;5.10;1.70;;;11.00;99.90;;;;;;5072366;28;20495;-69
2022/10/12 09:34:15;;;;;;;4.05;1.35;;;11.00;99.90;;;;;;5072005;28;20040;-68
2022/10/12 09:36:41;;;;;;;3.17;1.40;;;11.00;99.90;;;;;;5070821;28;20103;-69
2022/10/12 09:39:36;;;;;;;7.38;1.77;;;11.10;99.90;;;;;;5072338;28;20162;-69
2022/10/12 09:42:02;;;;;;;4.50;1.77;;;11.10;99.90;;;;;;5070868;28;20083;-68
2022/10/12 09:44:34;;;;;;;5.00;1.65;;;11.20;99.90;;;;;;5072214;28;20175;-68
2022/10/12 09:47:05;;;;;;;5.80;1.35;;;11.30;99.90;;;;;;5070671;28;20373;-68
2022/10/12 09:49:41;;;;;;;5.05;1.35;;;11.40;99.90;;;;;;5072138;28;20041;-71
2022/10/12 09:52:08;;;;;;;1.70;1.13;;;11.50;99.90;;;;;;5071788;28;20040;-69
2022/10/12 09:54:37;;;;;;;7.53;1.27;;;11.60;99.60;;;;;;5072097;28;20438;-69
2022/10/12 09:57:03;;;;;;;3.58;1.30;;;11.70;99.50;;;;;;5071983;28;20041;-68
2022/10/12 09:59:36;;;;;;;6.15;1.48;;;11.70;97.50;;;;;;5073969;28;20098;-69
2022/10/12 10:02:10;;;;;;;4.80;1.58;;;11.80;97.60;;;;;;5076006;28;20553;-69
2022/10/12 10:04:37;;;;;;;3.45;1.52;;;11.90;98.90;;;;;;5074467;28;20040;-68
2022/10/12 10:07:26;;;;;;;3.65;1.20;;;12.00;98.60;;;;;;5076057;28;20068;-70
2022/10/12 10:10:16;;;;;;;5.80;1.40;;;12.20;98.70;;;;;;5075765;28;20045;-69
2022/10/12 10:12:46;;;;;;;3.72;1.38;;;12.30;95.10;;;;;;5074260;28;20115;-70
2022/10/12 10:15:26;;;;;;;4.27;1.20;;;12.30;96.60;;;;;;5076009;28;20050;-69
2022/10/12 10:17:59;;;;;;;2.40;1.10;;;12.50;97.30;;;;;;5075679;28;20060;-69
2022/10/12 10:20:51;;;;;;;4.22;1.15;;;12.60;96.80;;;;;;5074219;28;20290;-69
2022/10/12 10:23:37;;;;;;;10.95;1.50;;;12.60;95.90;;;;;;5075474;28;20055;-69
2022/10/12 10:26:11;;;;;;;3.67;1.08;;;12.60;96.60;;;;;;5075266;28;20145;-69
2022/10/12 10:28:42;;;;;;;5.53;1.33;;;12.60;94.30;;;;;;5075388;28;20040;-69
2022/10/12 10:31:15;;;;;;;6.32;0.88;;;12.60;96.30;;;;;;5075387;28;20087;-68
2022/10/12 10:34:17;;;;;;;;;;;12.80;95.60;;;;;;5076059;28;20118;-69
2022/10/12 10:37:04;;;;;;;4.22;1.17;;;12.80;94.40;;;;;;5075282;28;19954;-69
2022/10/12 10:39:51;;;;;;;1.58;0.70;;;12.90;94.80;;;;;;5075248;28;20090;-68
2022/10/12 10:42:35;;;;;;;1.90;0.80;;;13.00;92.00;;;;;;5074998;28;20522;-70
2022/10/12 10:45:26;;;;;;;2.67;0.75;;;13.10;92.50;;;;;;5075088;28;20074;-69
2022/10/12 10:48:22;;;;;;;5.28;1.13;;;13.20;92.30;;;;;;5075034;28;20040;-69
2022/10/12 10:50:55;;;;;;;2.42;1.05;;;13.20;93.50;;;;;;5075253;28;20051;-69
2022/10/12 10:53:26;;;;;;;1.23;0.75;;;13.30;92.70;;;;;;5073639;28;20044;-69
2022/10/12 10:55:57;;;;;;;4.20;1.00;;;13.30;92.10;;;;;;5075193;28;20048;-69
2022/10/12 10:58:38;;;;;;;5.28;0.82;;;13.40;91.40;;;;;;5074849;28;20040;-69
2022/10/12 11:01:35;;;;;;;0.68;0.52;;;13.30;90.40;;;;;;5075148;28;20123;-69
2022/10/12 11:04:09;;;;;;;1.58;0.80;;;13.40;90.50;;;;;;5074916;28;20110;-71
2022/10/12 11:07:02;;;;;;;9.05;1.10;;;13.50;89.40;;;;;;5073369;28;20117;-69
2022/10/12 11:09:41;;;;;;;4.60;0.98;;;13.60;90.80;;;;;;5073388;28;20110;-69
2022/10/12 11:12:20;;;;;;;2.58;0.80;;;13.70;88.10;;;;;;5072620;28;20135;-69
2022/10/12 11:14:50;;;;;;;1.80;0.75;;;13.70;87.70;;;;;;5074571;28;20051;-69
2022/10/12 11:17:18;;;;;;;3.30;0.70;;;13.70;84.20;;;;;;5074843;28;20037;-70
2022/10/12 11:20:14;;;;;;;3.58;0.80;;;13.80;84.20;;;;;;5073160;28;20120;-69
2022/10/12 11:22:42;;;;;;;4.00;1.02;;;13.80;74.00;;;;;;5074436;28;20049;-70
2022/10/12 11:25:20;;;;;;;3.78;0.75;;;13.80;80.30;;;;;;5074688;28;20047;-70
2022/10/12 11:27:46;;;;;;;2.83;0.75;;;13.90;10.00;;;;;;5073362;28;20087;-71
2022/10/12 11:30:15;;;;;;;4.20;1.00;;;14.00;19.90;;;;;;5074615;28;20060;-70
2022/10/12 11:33:01;;;;;;;3.78;1.23;;;14.00;4.10;;;;;;5074489;28;20032;-70
2022/10/12 11:35:32;;;;;;;2.50;0.80;;;14.10;12.70;;;;;;5072901;28;20047;-70
2022/10/12 11:38:13;;;;;;;2.40;0.68;;;14.10;3.10;;;;;;5072818;28;20051;-70
2022/10/12 11:40:45;;;;;;;2.97;0.82;;;14.20;1.00;;;;;;5074045;28;20070;-70
2022/10/12 11:43:19;;;;;;;2.40;1.10;;;14.20;1.00;;;;;;5072589;28;20476;-70
2022/10/12 11:45:48;;;;;;;3.50;0.68;;;14.20;1.00;;;;;;5074309;28;20052;-70
2022/10/12 11:48:20;;;;;;;6.60;1.10;;;14.30;1.00;;;;;;5074144;28;20049;-70
2022/10/12 11:50:48;;;;;;;0.70;0.57;;;14.30;1.00;;;;;;5074175;28;20036;-70
2022/10/12 11:53:26;;;;;;;1.80;0.93;;;14.30;1.00;;;;;;5074024;28;20043;-70
2022/10/12 11:56:09;;;;;;;7.07;0.85;;;14.20;99.90;;;;;;5073760;28;20044;-70
2022/10/12 11:58:43;;;;;;;4.13;1.08;;;14.20;1.00;;;;;;5073660;28;20062;-69
2022/10/12 12:01:28;;;;;;;2.25;1.10;;;14.20;99.90;;;;;;5072479;28;20040;-70
2022/10/12 12:04:22;;;;;;;2.00;0.80;;;14.20;99.90;;;;;;5072943;28;20451;-70
2022/10/12 12:06:51;;;;;;;2.55;0.88;;;14.20;99.90;;;;;;5073875;28;20112;-70
2022/10/12 12:09:32;;;;;;;1.05;0.70;;;14.30;99.90;;;;;;5055563;28;20036;-70
2022/10/12 12:12:17;;;;;;;2.55;0.70;;;14.50;99.90;;;;;;5073672;28;20444;-70
2022/10/12 12:14:52;;;;;;;2.67;0.82;;;14.70;99.90;;;;;;5072059;28;20051;-70
2022/10/12 12:17:23;;;;;;;3.92;1.13;;;14.70;99.90;;;;;;5055694;28;20040;-71
2022/10/12 12:19:51;;;;;;;6.60;1.13;;;14.70;99.90;;;;;;5055311;28;20041;-70
2022/10/12 12:22:28;;;;;;;1.05;0.60;;;14.50;99.90;;;;;;5070918;28;20041;-69
2022/10/12 12:25:09;;;;;;;1.33;0.65;;;14.40;99.90;;;;;;5071934;28;20040;-69
2022/10/12 12:27:59;;;;;;;2.03;0.90;;;14.30;1.00;;;;;;5055197;28;20067;-69
2022/10/12 12:30:56;;;;;;;1.83;0.75;;;14.30;99.90;;;;;;5073026;28;20040;-69
2022/10/12 12:33:32;;;;;;;3.08;0.90;;;14.20;99.90;;;;;;5071625;28;20062;-69
2022/10/12 12:36:06;;;;;;;1.58;0.63;;;14.20;99.90;;;;;;5071635;28;20040;-69
2022/10/12 12:38:38;;;;;;;1.90;1.05;;;14.10;99.90;;;;;;5071931;28;20487;-69
2022/10/12 12:41:13;;;;;;;6.07;0.98;;;14.00;99.90;;;;;;5071588;28;20044;-69
2022/10/12 12:43:52;;;;;;;1.15;0.70;;;14.00;99.90;;;;;;5071313;28;20543;-68
2022/10/12 12:46:19;;;;;;;2.88;0.90;;;14.00;99.90;;;;;;5071534;28;20056;-69
2022/10/12 12:48:45;;;;;;;5.00;0.95;;;14.00;99.90;;;;;;5071667;28;20045;-69
2022/10/12 12:51:18;;;;;;;3.00;0.85;;;13.90;99.90;;;;;;5072683;28;20036;-69
2022/10/12 12:53:51;;;;;;;4.10;0.80;;;14.20;99.90;;;;;;5071427;28;20553;-69
2022/10/12 12:56:20;;;;;;;5.07;0.98;;;14.00;99.90;;;;;;5071329;28;20149;-69
2022/10/12 12:59:13;;;;;;;5.28;0.75;;;13.80;99.90;;;;;;5071282;28;20197;-69
2022/10/12 13:02:06;;;;;;;1.05;0.70;;;14.00;99.90;;;;;;5071141;28;20461;-69
2022/10/12 13:04:41;;;;;;;1.50;0.80;;;14.00;99.90;;;;;;5071128;28;20036;-69
2022/10/12 13:07:26;;;;;;;2.15;0.90;;;13.90;99.90;;;;;;5071422;28;20406;-69
2022/10/12 13:10:29;;;;;;;3.55;0.80;;;13.90;99.90;;;;;;5071139;28;20118;-69
2022/10/12 13:13:46;;;;;;;2.33;0.82;;;13.90;99.90;;;;;;5070989;28;20041;-68
2022/10/12 13:16:50;;;;;;;1.55;0.75;;;13.90;99.90;;;;;;5070610;28;20048;-68